RYR26Z EGGP-GCTS
Flight info
| Callsign | RYR26Z |
|---|---|
| Flight time | N/A |
| Altitude | 36000 |
| Route | WAL L10 PENIL M144 BAGSO DCT BUNED DCT WTD DCT TUVEN/M076F360 DCT LASNO T9 BEGAS/N0437F360 DCT RIPEL/N0438F370 DCT OBESA DCT PECKY DCT RAKUN DCT ORTIS |
| Aircraft | B738/M-SDE2E3FGHIRWXY/LB1 |
Departure
| Time | N/A |
|---|---|
| Airport | Liverpool John Lennon Airport (EGGP) |
Arrival
| Time | 2026-05-05 15:04 |
|---|---|
| Airport | Tenerife Sur Airport (GCTS) |
| Time | Latitude | Longitude | Altitude | Speed | Heading |
|---|---|---|---|---|---|
| 2026-05-05 12:11 | 46.04294 | -8.99998 | 38073 ft | 475 kts | 181° |
| 2026-05-05 12:11 | 46.00989 | -8.99998 | 38071 ft | 475 kts | 181° |
| 2026-05-05 12:11 | 45.94383 | -8.99998 | 38071 ft | 475 kts | 181° |
| 2026-05-05 12:12 | 45.87778 | -8.99998 | 38073 ft | 475 kts | 181° |
| 2026-05-05 12:12 | 45.81171 | -8.99998 | 38072 ft | 475 kts | 181° |
| 2026-05-05 12:13 | 45.74569 | -8.99998 | 38072 ft | 475 kts | 181° |
| 2026-05-05 12:13 | 45.67963 | -8.99999 | 38070 ft | 475 kts | 181° |
| 2026-05-05 12:14 | 45.61358 | -8.99999 | 38066 ft | 475 kts | 181° |
| 2026-05-05 12:14 | 45.54757 | -8.99999 | 38053 ft | 474 kts | 181° |
| 2026-05-05 12:15 | 45.48156 | -8.99999 | 38069 ft | 474 kts | 181° |
| 2026-05-05 12:15 | 45.41554 | -8.99999 | 38073 ft | 475 kts | 181° |
| 2026-05-05 12:16 | 45.34915 | -9.00000 | 38080 ft | 481 kts | 181° |
| 2026-05-05 12:16 | 45.28224 | -9.00001 | 38074 ft | 486 kts | 181° |
| 2026-05-05 12:17 | 45.21442 | -9.00000 | 38073 ft | 488 kts | 181° |
| 2026-05-05 12:17 | 45.14644 | -9.00000 | 38064 ft | 489 kts | 181° |
| 2026-05-05 12:18 | 45.07841 | -9.00000 | 38068 ft | 489 kts | 181° |
| 2026-05-05 12:18 | 45.01081 | -9.00495 | 38062 ft | 484 kts | 193° |
| 2026-05-05 12:19 | 44.94753 | -9.03465 | 38081 ft | 477 kts | 209° |
| 2026-05-05 12:19 | 44.88833 | -9.07691 | 38079 ft | 476 kts | 210° |
| 2026-05-05 12:20 | 44.82929 | -9.11921 | 38067 ft | 476 kts | 209° |
| 2026-05-05 12:20 | 44.77006 | -9.16094 | 38057 ft | 475 kts | 209° |
| 2026-05-05 12:21 | 44.71085 | -9.20221 | 38075 ft | 475 kts | 209° |
| 2026-05-05 12:21 | 44.65162 | -9.24332 | 38072 ft | 474 kts | 209° |
| 2026-05-05 12:22 | 44.59245 | -9.28430 | 38078 ft | 474 kts | 209° |
| 2026-05-05 12:22 | 44.53334 | -9.32517 | 38075 ft | 474 kts | 209° |
| 2026-05-05 12:23 | 44.47422 | -9.36596 | 38078 ft | 473 kts | 209° |
| 2026-05-05 12:23 | 44.41511 | -9.40665 | 38079 ft | 473 kts | 209° |
| 2026-05-05 12:24 | 44.35639 | -9.44698 | 38076 ft | 473 kts | 209° |
| 2026-05-05 12:24 | 44.29727 | -9.48749 | 38073 ft | 473 kts | 209° |
| 2026-05-05 12:25 | 44.23813 | -9.52793 | 38080 ft | 473 kts | 209° |
| 2026-05-05 12:25 | 44.17893 | -9.56832 | 38085 ft | 474 kts | 210° |
| 2026-05-05 12:26 | 44.11971 | -9.60863 | 38080 ft | 474 kts | 210° |
| 2026-05-05 12:26 | 44.06042 | -9.64889 | 38082 ft | 474 kts | 209° |
| 2026-05-05 12:27 | 44.00105 | -9.68912 | 38077 ft | 475 kts | 210° |
| 2026-05-05 12:27 | 43.94167 | -9.72927 | 38089 ft | 475 kts | 210° |
| 2026-05-05 12:28 | 43.88229 | -9.76933 | 38090 ft | 475 kts | 210° |
| 2026-05-05 12:28 | 43.82287 | -9.80932 | 38090 ft | 475 kts | 210° |
| 2026-05-05 12:29 | 43.76348 | -9.84920 | 38077 ft | 474 kts | 210° |
| 2026-05-05 12:29 | 43.70422 | -9.88891 | 38083 ft | 473 kts | 210° |
| 2026-05-05 12:30 | 43.64501 | -9.92849 | 38098 ft | 472 kts | 210° |
| 2026-05-05 12:30 | 43.58590 | -9.96793 | 38072 ft | 472 kts | 210° |
| 2026-05-05 12:31 | 43.52683 | -10.00725 | 38096 ft | 471 kts | 210° |
| 2026-05-05 12:31 | 43.46789 | -10.04641 | 38103 ft | 470 kts | 210° |
| 2026-05-05 12:32 | 43.40901 | -10.08544 | 38100 ft | 469 kts | 210° |
| 2026-05-05 12:32 | 43.35022 | -10.12432 | 38100 ft | 469 kts | 210° |
| 2026-05-05 12:33 | 43.29152 | -10.16306 | 38108 ft | 468 kts | 210° |
| 2026-05-05 12:33 | 43.23322 | -10.20145 | 38108 ft | 467 kts | 210° |
| 2026-05-05 12:34 | 43.17465 | -10.23994 | 38107 ft | 467 kts | 210° |
| 2026-05-05 12:34 | 43.11616 | -10.27829 | 38113 ft | 465 kts | 210° |
| 2026-05-05 12:35 | 43.05780 | -10.31647 | 38115 ft | 465 kts | 210° |
| 2026-05-05 12:35 | 42.99950 | -10.35454 | 38117 ft | 464 kts | 210° |
| 2026-05-05 12:36 | 42.94124 | -10.39251 | 38115 ft | 464 kts | 210° |
| 2026-05-05 12:36 | 42.88304 | -10.43035 | 38121 ft | 463 kts | 210° |
| 2026-05-05 12:37 | 42.83469 | -10.46173 | 38126 ft | 463 kts | 210° |
| 2026-05-05 12:37 | 42.77649 | -10.49942 | 38125 ft | 463 kts | 210° |
| 2026-05-05 12:38 | 42.71834 | -10.53702 | 38119 ft | 463 kts | 210° |
| 2026-05-05 12:38 | 42.66022 | -10.57450 | 38104 ft | 462 kts | 209° |
| 2026-05-05 12:39 | 42.60215 | -10.61188 | 38126 ft | 461 kts | 209° |
| 2026-05-05 12:39 | 42.54416 | -10.64913 | 38129 ft | 461 kts | 209° |
| 2026-05-05 12:40 | 42.48620 | -10.68629 | 38128 ft | 460 kts | 209° |
| 2026-05-05 12:40 | 42.42833 | -10.72332 | 38134 ft | 460 kts | 209° |
| 2026-05-05 12:41 | 42.37046 | -10.76027 | 38133 ft | 460 kts | 209° |
| 2026-05-05 12:41 | 42.31266 | -10.79712 | 38134 ft | 459 kts | 209° |
| 2026-05-05 12:42 | 42.25497 | -10.83415 | 38137 ft | 459 kts | 210° |
| 2026-05-05 12:42 | 42.19780 | -10.87228 | 38143 ft | 458 kts | 211° |
| 2026-05-05 12:43 | 42.14112 | -10.91031 | 38143 ft | 458 kts | 210° |
| 2026-05-05 12:43 | 42.08403 | -10.94840 | 38107 ft | 458 kts | 210° |
| 2026-05-05 12:44 | 42.02697 | -10.98626 | 38132 ft | 457 kts | 210° |
| 2026-05-05 12:44 | 41.96992 | -11.02401 | 38144 ft | 457 kts | 210° |
| 2026-05-05 12:45 | 41.91288 | -11.06167 | 38143 ft | 457 kts | 210° |
| 2026-05-05 12:45 | 41.85585 | -11.09924 | 38132 ft | 456 kts | 210° |
| 2026-05-05 12:46 | 41.79890 | -11.13669 | 38141 ft | 456 kts | 210° |
| 2026-05-05 12:46 | 41.74199 | -11.17405 | 38148 ft | 455 kts | 210° |
| 2026-05-05 12:47 | 41.68513 | -11.21130 | 38149 ft | 455 kts | 210° |
| 2026-05-05 12:47 | 41.62828 | -11.24847 | 38143 ft | 454 kts | 210° |
| 2026-05-05 12:48 | 41.57151 | -11.28551 | 38141 ft | 454 kts | 210° |
| 2026-05-05 12:48 | 41.51480 | -11.32244 | 38149 ft | 453 kts | 210° |
| 2026-05-05 12:49 | 41.45816 | -11.35925 | 38151 ft | 453 kts | 210° |
| 2026-05-05 12:49 | 41.40156 | -11.39597 | 38140 ft | 452 kts | 210° |
| 2026-05-05 12:50 | 41.34508 | -11.43253 | 38147 ft | 451 kts | 210° |
| 2026-05-05 12:50 | 41.28868 | -11.46898 | 38157 ft | 450 kts | 210° |
| 2026-05-05 12:51 | 41.23236 | -11.50530 | 38154 ft | 450 kts | 210° |
| 2026-05-05 12:51 | 41.17639 | -11.54133 | 38147 ft | 449 kts | 210° |
| 2026-05-05 12:52 | 41.12013 | -11.57747 | 38157 ft | 449 kts | 210° |
| 2026-05-05 12:52 | 41.06390 | -11.61353 | 38163 ft | 449 kts | 210° |
| 2026-05-05 12:53 | 41.00766 | -11.64952 | 38166 ft | 449 kts | 210° |
| 2026-05-05 12:53 | 40.95141 | -11.68545 | 38152 ft | 449 kts | 210° |
| 2026-05-05 12:54 | 40.86709 | -11.73918 | 38163 ft | 448 kts | 210° |
| 2026-05-05 12:55 | 40.81091 | -11.77490 | 38169 ft | 448 kts | 210° |
| 2026-05-05 12:55 | 40.75472 | -11.81055 | 38169 ft | 448 kts | 210° |
| 2026-05-05 12:56 | 40.69858 | -11.84611 | 38162 ft | 447 kts | 210° |
| 2026-05-05 12:56 | 40.64252 | -11.88155 | 38168 ft | 447 kts | 210° |
| 2026-05-05 12:57 | 40.58650 | -11.91690 | 38169 ft | 446 kts | 210° |
| 2026-05-05 12:57 | 40.53052 | -11.95215 | 38172 ft | 446 kts | 210° |
| 2026-05-05 12:58 | 40.47461 | -11.98730 | 38167 ft | 445 kts | 210° |
| 2026-05-05 12:58 | 40.41877 | -12.02233 | 38169 ft | 444 kts | 210° |
| 2026-05-05 12:59 | 40.36304 | -12.05724 | 38171 ft | 444 kts | 210° |
| 2026-05-05 12:59 | 40.30735 | -12.09205 | 38174 ft | 443 kts | 210° |
| 2026-05-05 13:00 | 40.22395 | -12.14407 | 38178 ft | 442 kts | 210° |
| 2026-05-05 13:01 | 40.11291 | -12.21311 | 38183 ft | 442 kts | 210° |
| 2026-05-05 13:01 | 40.05742 | -12.24752 | 38184 ft | 441 kts | 210° |
| 2026-05-05 13:02 | 40.00194 | -12.28186 | 38181 ft | 441 kts | 209° |
| 2026-05-05 13:02 | 39.94646 | -12.31614 | 38182 ft | 441 kts | 209° |
| 2026-05-05 13:03 | 39.89097 | -12.35036 | 38194 ft | 441 kts | 209° |
| 2026-05-05 13:03 | 39.83582 | -12.38430 | 38189 ft | 441 kts | 209° |
| 2026-05-05 13:04 | 39.77990 | -12.41867 | 38177 ft | 441 kts | 209° |
| 2026-05-05 13:04 | 39.72438 | -12.45272 | 38188 ft | 441 kts | 209° |
| 2026-05-05 13:05 | 39.66924 | -12.48649 | 38195 ft | 442 kts | 209° |
| 2026-05-05 13:05 | 39.61361 | -12.52049 | 38194 ft | 442 kts | 209° |
| 2026-05-05 13:06 | 39.55794 | -12.55445 | 38179 ft | 442 kts | 209° |
| 2026-05-05 13:06 | 39.50229 | -12.58834 | 38193 ft | 442 kts | 209° |
| 2026-05-05 13:07 | 39.44659 | -12.62220 | 38192 ft | 442 kts | 209° |
| 2026-05-05 13:07 | 39.39089 | -12.65601 | 38194 ft | 442 kts | 209° |
| 2026-05-05 13:08 | 39.33517 | -12.68976 | 38193 ft | 442 kts | 209° |
| 2026-05-05 13:08 | 39.27949 | -12.72342 | 38191 ft | 442 kts | 209° |
| 2026-05-05 13:09 | 39.22385 | -12.75701 | 38193 ft | 441 kts | 209° |
| 2026-05-05 13:09 | 39.16822 | -12.79054 | 38188 ft | 441 kts | 209° |
| 2026-05-05 13:10 | 39.11260 | -12.82399 | 38197 ft | 441 kts | 209° |
| 2026-05-05 13:10 | 39.05697 | -12.85739 | 38190 ft | 441 kts | 209° |
| 2026-05-05 13:11 | 39.00144 | -12.89068 | 38195 ft | 440 kts | 209° |
| 2026-05-05 13:11 | 38.94593 | -12.92390 | 38198 ft | 440 kts | 209° |
| 2026-05-05 13:12 | 38.89043 | -12.95705 | 38201 ft | 440 kts | 209° |
| 2026-05-05 13:12 | 38.83495 | -12.99014 | 38191 ft | 439 kts | 209° |
| 2026-05-05 13:13 | 38.77955 | -13.02311 | 38199 ft | 439 kts | 209° |
| 2026-05-05 13:13 | 38.72413 | -13.05604 | 38202 ft | 439 kts | 209° |
| 2026-05-05 13:14 | 38.66877 | -13.08889 | 38205 ft | 439 kts | 209° |
| 2026-05-05 13:14 | 38.61338 | -13.12169 | 38203 ft | 439 kts | 209° |
| 2026-05-05 13:15 | 38.55809 | -13.15438 | 38195 ft | 438 kts | 209° |
| 2026-05-05 13:15 | 38.50281 | -13.18701 | 38202 ft | 437 kts | 209° |
| 2026-05-05 13:16 | 38.44755 | -13.21957 | 38209 ft | 437 kts | 209° |
| 2026-05-05 13:16 | 38.39227 | -13.25209 | 38211 ft | 438 kts | 209° |
| 2026-05-05 13:17 | 38.33737 | -13.28433 | 38200 ft | 437 kts | 209° |
| 2026-05-05 13:17 | 38.28225 | -13.31664 | 38206 ft | 436 kts | 209° |
| 2026-05-05 13:18 | 38.22720 | -13.34886 | 38210 ft | 435 kts | 209° |
| 2026-05-05 13:18 | 38.17218 | -13.38101 | 38209 ft | 435 kts | 209° |
| 2026-05-05 13:19 | 38.11721 | -13.41307 | 38192 ft | 435 kts | 209° |
| 2026-05-05 13:19 | 38.06225 | -13.44508 | 38209 ft | 434 kts | 209° |
| 2026-05-05 13:20 | 38.00730 | -13.47702 | 38202 ft | 434 kts | 209° |
| 2026-05-05 13:20 | 37.95239 | -13.50890 | 38206 ft | 434 kts | 208° |
| 2026-05-05 13:21 | 37.89746 | -13.54073 | 38214 ft | 434 kts | 208° |
| 2026-05-05 13:21 | 37.84253 | -13.57251 | 38205 ft | 434 kts | 208° |
| 2026-05-05 13:22 | 37.78763 | -13.60421 | 38210 ft | 434 kts | 208° |
| 2026-05-05 13:22 | 37.73275 | -13.63586 | 38209 ft | 434 kts | 208° |
| 2026-05-05 13:23 | 37.67786 | -13.66745 | 38210 ft | 434 kts | 208° |
| 2026-05-05 13:23 | 37.62295 | -13.69901 | 38209 ft | 434 kts | 208° |
| 2026-05-05 13:24 | 37.57730 | -13.72521 | 38210 ft | 434 kts | 208° |
| 2026-05-05 13:24 | 37.52235 | -13.75670 | 38212 ft | 434 kts | 208° |
| 2026-05-05 13:25 | 37.46738 | -13.78815 | 38212 ft | 434 kts | 208° |
| 2026-05-05 13:25 | 37.41241 | -13.81954 | 38212 ft | 434 kts | 208° |
| 2026-05-05 13:26 | 37.35743 | -13.85089 | 38195 ft | 434 kts | 208° |
| 2026-05-05 13:26 | 37.30251 | -13.88216 | 38208 ft | 433 kts | 208° |
| 2026-05-05 13:27 | 37.24761 | -13.91337 | 38217 ft | 433 kts | 208° |
| 2026-05-05 13:27 | 37.19269 | -13.94453 | 38210 ft | 433 kts | 208° |
| 2026-05-05 13:28 | 37.13778 | -13.97565 | 38209 ft | 433 kts | 208° |
| 2026-05-05 13:28 | 37.08325 | -14.00650 | 38204 ft | 433 kts | 208° |
| 2026-05-05 13:29 | 37.02837 | -14.03749 | 38209 ft | 433 kts | 208° |
| 2026-05-05 13:29 | 36.97349 | -14.06844 | 38208 ft | 433 kts | 208° |
| 2026-05-05 13:30 | 36.91857 | -14.09936 | 38212 ft | 433 kts | 208° |
| 2026-05-05 13:30 | 36.86368 | -14.13022 | 38189 ft | 433 kts | 208° |
| 2026-05-05 13:31 | 36.80880 | -14.16102 | 38208 ft | 433 kts | 208° |
| 2026-05-05 13:31 | 36.75383 | -14.19183 | 38212 ft | 433 kts | 208° |
| 2026-05-05 13:32 | 36.69881 | -14.22263 | 38215 ft | 434 kts | 208° |
| 2026-05-05 13:32 | 36.64371 | -14.25330 | 38211 ft | 434 kts | 207° |
| 2026-05-05 13:33 | 36.58818 | -14.28277 | 38199 ft | 434 kts | 207° |
| 2026-05-05 13:33 | 36.53236 | -14.31191 | 38207 ft | 435 kts | 207° |
| 2026-05-05 13:34 | 36.47654 | -14.34112 | 38209 ft | 435 kts | 207° |
| 2026-05-05 13:34 | 36.42070 | -14.37042 | 38210 ft | 436 kts | 207° |
| 2026-05-05 13:35 | 36.36515 | -14.39956 | 38210 ft | 436 kts | 207° |
| 2026-05-05 13:35 | 36.30923 | -14.42886 | 38214 ft | 437 kts | 207° |
| 2026-05-05 13:36 | 36.25323 | -14.45816 | 38197 ft | 437 kts | 206° |
| 2026-05-05 13:36 | 36.19720 | -14.48742 | 38210 ft | 437 kts | 206° |
| 2026-05-05 13:37 | 36.14113 | -14.51665 | 38209 ft | 437 kts | 206° |
| 2026-05-05 13:37 | 36.08502 | -14.54586 | 38197 ft | 437 kts | 206° |
| 2026-05-05 13:38 | 36.02890 | -14.57503 | 38202 ft | 438 kts | 206° |
| 2026-05-05 13:38 | 35.97277 | -14.60416 | 38206 ft | 438 kts | 206° |
| 2026-05-05 13:39 | 35.91656 | -14.63329 | 38207 ft | 438 kts | 206° |
| 2026-05-05 13:39 | 35.86033 | -14.66238 | 38206 ft | 438 kts | 206° |
| 2026-05-05 13:40 | 35.80408 | -14.69144 | 38196 ft | 438 kts | 206° |
| 2026-05-05 13:40 | 35.74780 | -14.72047 | 38203 ft | 439 kts | 206° |
| 2026-05-05 13:41 | 35.69146 | -14.74948 | 38201 ft | 439 kts | 206° |
| 2026-05-05 13:41 | 35.63505 | -14.77849 | 38201 ft | 439 kts | 206° |
| 2026-05-05 13:42 | 35.57862 | -14.80746 | 38183 ft | 440 kts | 206° |
| 2026-05-05 13:42 | 35.52256 | -14.83620 | 38197 ft | 440 kts | 206° |
| 2026-05-05 13:43 | 35.46604 | -14.86513 | 38201 ft | 440 kts | 206° |
| 2026-05-05 13:43 | 35.40951 | -14.89402 | 38196 ft | 440 kts | 206° |
| 2026-05-05 13:44 | 35.35293 | -14.92289 | 38196 ft | 440 kts | 206° |
| 2026-05-05 13:44 | 35.29633 | -14.95173 | 38176 ft | 441 kts | 206° |
| 2026-05-05 13:45 | 35.23974 | -14.98052 | 38193 ft | 440 kts | 206° |
| 2026-05-05 13:45 | 35.18313 | -15.00928 | 38197 ft | 441 kts | 206° |
| 2026-05-05 13:46 | 35.12650 | -15.03800 | 38196 ft | 441 kts | 206° |
| 2026-05-05 13:46 | 35.06982 | -15.06671 | 38196 ft | 441 kts | 206° |
| 2026-05-05 13:47 | 35.01314 | -15.09537 | 38196 ft | 441 kts | 206° |
| 2026-05-05 13:47 | 34.95644 | -15.12400 | 38188 ft | 441 kts | 206° |
| 2026-05-05 13:48 | 34.89976 | -15.15258 | 38188 ft | 441 kts | 206° |
| 2026-05-05 13:48 | 34.84343 | -15.18094 | 38185 ft | 441 kts | 206° |
| 2026-05-05 13:49 | 34.78672 | -15.20944 | 38163 ft | 441 kts | 205° |
| 2026-05-05 13:49 | 34.72965 | -15.23809 | 38182 ft | 441 kts | 205° |
| 2026-05-05 13:50 | 34.67324 | -15.26636 | 38187 ft | 441 kts | 205° |
| 2026-05-05 13:50 | 34.61644 | -15.29480 | 38187 ft | 442 kts | 205° |
| 2026-05-05 13:51 | 34.55957 | -15.32322 | 38182 ft | 442 kts | 205° |
| 2026-05-05 13:51 | 34.50255 | -15.35121 | 38167 ft | 443 kts | 204° |
| 2026-05-05 13:52 | 34.44494 | -15.37763 | 38180 ft | 443 kts | 203° |
| 2026-05-05 13:52 | 34.38717 | -15.40382 | 38176 ft | 443 kts | 203° |
| 2026-05-05 13:53 | 34.32945 | -15.43015 | 38174 ft | 443 kts | 203° |
| 2026-05-05 13:53 | 34.27173 | -15.45658 | 38175 ft | 444 kts | 204° |
| 2026-05-05 13:54 | 34.21403 | -15.48299 | 38166 ft | 443 kts | 203° |
| 2026-05-05 13:54 | 34.15635 | -15.50935 | 38172 ft | 443 kts | 203° |
| 2026-05-05 13:55 | 34.09871 | -15.53565 | 38174 ft | 443 kts | 203° |
| 2026-05-05 13:55 | 34.04104 | -15.56193 | 38171 ft | 443 kts | 203° |
| 2026-05-05 13:56 | 33.98337 | -15.58816 | 38159 ft | 443 kts | 203° |
| 2026-05-05 13:56 | 33.92565 | -15.61438 | 38167 ft | 443 kts | 203° |
| 2026-05-05 13:57 | 33.86795 | -15.64056 | 38166 ft | 443 kts | 203° |
| 2026-05-05 13:57 | 33.81033 | -15.66666 | 38164 ft | 442 kts | 203° |
| 2026-05-05 13:58 | 33.75272 | -15.69271 | 38164 ft | 442 kts | 203° |
| 2026-05-05 13:58 | 33.69516 | -15.71872 | 38157 ft | 441 kts | 203° |
| 2026-05-05 13:59 | 33.60898 | -15.75759 | 38156 ft | 441 kts | 203° |
| 2026-05-05 14:00 | 33.53227 | -15.79090 | 38158 ft | 441 kts | 200° |
| 2026-05-05 14:00 | 33.46363 | -15.81615 | 38169 ft | 441 kts | 199° |
| 2026-05-05 14:01 | 33.40516 | -15.83728 | 38152 ft | 442 kts | 200° |
| 2026-05-05 14:01 | 33.34628 | -15.85877 | 38149 ft | 442 kts | 200° |
| 2026-05-05 14:02 | 33.28752 | -15.88035 | 38150 ft | 442 kts | 200° |
| 2026-05-05 14:02 | 33.22880 | -15.90194 | 38145 ft | 441 kts | 200° |
| 2026-05-05 14:03 | 33.17019 | -15.92345 | 38133 ft | 440 kts | 200° |
| 2026-05-05 14:03 | 33.11166 | -15.94491 | 38146 ft | 440 kts | 200° |
| 2026-05-05 14:04 | 33.05316 | -15.96632 | 38144 ft | 440 kts | 200° |
| 2026-05-05 14:04 | 32.99460 | -15.98773 | 38141 ft | 440 kts | 200° |
| 2026-05-05 14:05 | 32.93594 | -16.00914 | 38137 ft | 441 kts | 200° |
| 2026-05-05 14:05 | 32.87714 | -16.03057 | 38121 ft | 442 kts | 200° |
| 2026-05-05 14:06 | 32.81833 | -16.05197 | 38122 ft | 442 kts | 200° |
| 2026-05-05 14:06 | 32.75957 | -16.07332 | 38127 ft | 441 kts | 200° |
| 2026-05-05 14:07 | 32.70081 | -16.09465 | 38117 ft | 442 kts | 200° |
| 2026-05-05 14:07 | 32.64200 | -16.11597 | 38129 ft | 443 kts | 200° |
| 2026-05-05 14:08 | 32.58322 | -16.13748 | 38066 ft | 442 kts | 201° |
| 2026-05-05 14:08 | 32.52506 | -16.15847 | 38105 ft | 435 kts | 200° |
| 2026-05-05 14:09 | 32.46736 | -16.17914 | 38117 ft | 432 kts | 200° |
| 2026-05-05 14:09 | 32.40984 | -16.19982 | 38140 ft | 434 kts | 200° |
| 2026-05-05 14:10 | 32.38089 | -16.21025 | 38266 ft | 436 kts | 201° |
| 2026-05-05 14:10 | 32.35186 | -16.22071 | 38491 ft | 436 kts | 201° |
| 2026-05-05 14:10 | 32.32289 | -16.23111 | 38809 ft | 434 kts | 201° |
| 2026-05-05 14:10 | 32.29410 | -16.24144 | 39035 ft | 432 kts | 201° |
| 2026-05-05 14:11 | 32.26534 | -16.25176 | 39186 ft | 432 kts | 201° |
| 2026-05-05 14:11 | 32.23655 | -16.26208 | 39316 ft | 433 kts | 201° |
| 2026-05-05 14:11 | 32.20763 | -16.27245 | 39426 ft | 434 kts | 201° |
| 2026-05-05 14:11 | 32.17874 | -16.28281 | 39588 ft | 434 kts | 201° |
| 2026-05-05 14:12 | 32.14986 | -16.29314 | 39879 ft | 433 kts | 201° |
| 2026-05-05 14:12 | 32.12151 | -16.30329 | 40009 ft | 427 kts | 201° |
| 2026-05-05 14:12 | 32.06563 | -16.32310 | 40056 ft | 419 kts | 202° |
| 2026-05-05 14:13 | 32.00964 | -16.34312 | 40091 ft | 423 kts | 201° |
| 2026-05-05 14:13 | 31.95299 | -16.36346 | 40104 ft | 429 kts | 201° |
| 2026-05-05 14:14 | 31.89556 | -16.38396 | 40100 ft | 433 kts | 201° |
| 2026-05-05 14:14 | 31.84711 | -16.40119 | 40097 ft | 435 kts | 201° |
| 2026-05-05 14:15 | 31.78913 | -16.42176 | 40079 ft | 433 kts | 202° |
| 2026-05-05 14:15 | 31.73262 | -16.44176 | 40081 ft | 422 kts | 202° |
| 2026-05-05 14:16 | 31.67660 | -16.46163 | 40092 ft | 420 kts | 202° |
| 2026-05-05 14:16 | 31.62046 | -16.48154 | 40095 ft | 423 kts | 202° |
| 2026-05-05 14:17 | 31.56416 | -16.50145 | 40101 ft | 422 kts | 202° |
| 2026-05-05 14:17 | 31.50792 | -16.52131 | 40088 ft | 422 kts | 202° |
| 2026-05-05 14:18 | 31.45174 | -16.54113 | 40091 ft | 422 kts | 202° |
| 2026-05-05 14:18 | 31.39435 | -16.55645 | 40082 ft | 433 kts | 186° |
| 2026-05-05 14:19 | 31.33372 | -16.55078 | 40103 ft | 439 kts | 181° |
| 2026-05-05 14:19 | 31.27291 | -16.54365 | 40092 ft | 439 kts | 181° |
| 2026-05-05 14:20 | 31.21211 | -16.53693 | 40081 ft | 438 kts | 182° |
| 2026-05-05 14:20 | 31.15141 | -16.53056 | 40079 ft | 438 kts | 182° |
| 2026-05-05 14:21 | 31.09075 | -16.52434 | 40081 ft | 437 kts | 182° |
| 2026-05-05 14:21 | 31.03012 | -16.51814 | 40087 ft | 437 kts | 182° |
| 2026-05-05 14:22 | 30.96976 | -16.51437 | 40082 ft | 427 kts | 192° |
| 2026-05-05 14:22 | 30.91195 | -16.52400 | 40084 ft | 422 kts | 195° |
| 2026-05-05 14:23 | 30.85398 | -16.53430 | 40088 ft | 421 kts | 195° |
| 2026-05-05 14:23 | 30.79595 | -16.54427 | 40086 ft | 421 kts | 195° |
| 2026-05-05 14:24 | 30.73796 | -16.55402 | 40087 ft | 421 kts | 195° |
| 2026-05-05 14:24 | 30.68005 | -16.56365 | 40080 ft | 419 kts | 196° |
| 2026-05-05 14:25 | 30.62237 | -16.57324 | 40084 ft | 418 kts | 196° |
| 2026-05-05 14:25 | 30.56489 | -16.58279 | 40086 ft | 417 kts | 196° |
| 2026-05-05 14:26 | 30.50751 | -16.59231 | 40083 ft | 416 kts | 196° |
| 2026-05-05 14:26 | 30.45021 | -16.60182 | 40085 ft | 416 kts | 196° |
| 2026-05-05 14:27 | 30.39311 | -16.61125 | 40069 ft | 413 kts | 197° |
| 2026-05-05 14:27 | 30.33634 | -16.62063 | 40076 ft | 411 kts | 197° |
| 2026-05-05 14:28 | 30.27975 | -16.62998 | 40077 ft | 410 kts | 197° |
| 2026-05-05 14:28 | 30.22330 | -16.63930 | 40079 ft | 409 kts | 197° |
| 2026-05-05 14:29 | 30.16697 | -16.64859 | 40081 ft | 409 kts | 197° |
| 2026-05-05 14:29 | 30.11082 | -16.65783 | 40071 ft | 407 kts | 197° |
| 2026-05-05 14:30 | 30.05482 | -16.66704 | 40078 ft | 406 kts | 197° |
| 2026-05-05 14:30 | 29.99892 | -16.67623 | 40077 ft | 405 kts | 197° |
| 2026-05-05 14:31 | 29.94309 | -16.68539 | 40078 ft | 405 kts | 197° |
| 2026-05-05 14:31 | 29.88727 | -16.69454 | 40080 ft | 405 kts | 197° |
| 2026-05-05 14:32 | 29.83190 | -16.70360 | 40072 ft | 404 kts | 198° |
| 2026-05-05 14:32 | 29.77619 | -16.71271 | 40077 ft | 404 kts | 198° |
| 2026-05-05 14:33 | 29.72044 | -16.72182 | 40077 ft | 405 kts | 197° |
| 2026-05-05 14:33 | 29.66468 | -16.73092 | 40080 ft | 405 kts | 197° |
| 2026-05-05 14:34 | 29.60888 | -16.74001 | 40077 ft | 405 kts | 197° |
| 2026-05-05 14:34 | 29.55302 | -16.74911 | 40077 ft | 405 kts | 197° |
| 2026-05-05 14:35 | 29.49716 | -16.75819 | 40078 ft | 406 kts | 197° |
| 2026-05-05 14:35 | 29.44127 | -16.76726 | 40072 ft | 406 kts | 197° |
| 2026-05-05 14:36 | 29.38534 | -16.77634 | 40068 ft | 406 kts | 197° |
| 2026-05-05 14:36 | 29.32943 | -16.78540 | 40069 ft | 406 kts | 197° |
| 2026-05-05 14:37 | 29.27354 | -16.79443 | 40061 ft | 405 kts | 198° |
| 2026-05-05 14:37 | 29.21777 | -16.80345 | 40070 ft | 405 kts | 198° |
| 2026-05-05 14:38 | 29.16195 | -16.81247 | 40075 ft | 405 kts | 198° |
| 2026-05-05 14:38 | 29.10617 | -16.82147 | 40066 ft | 405 kts | 198° |
| 2026-05-05 14:39 | 29.05038 | -16.83046 | 40060 ft | 405 kts | 198° |
| 2026-05-05 14:39 | 28.99459 | -16.83944 | 40063 ft | 405 kts | 198° |
| 2026-05-05 14:40 | 28.93883 | -16.84841 | 40059 ft | 405 kts | 198° |
| 2026-05-05 14:40 | 28.91121 | -16.85287 | 39749 ft | 410 kts | 198° |
| 2026-05-05 14:40 | 28.88302 | -16.85740 | 39370 ft | 405 kts | 198° |
| 2026-05-05 14:41 | 28.85475 | -16.86190 | 38741 ft | 404 kts | 199° |
| 2026-05-05 14:41 | 28.82737 | -16.86627 | 38088 ft | 402 kts | 199° |
| 2026-05-05 14:41 | 28.79975 | -16.87069 | 37451 ft | 399 kts | 199° |
| 2026-05-05 14:41 | 28.77233 | -16.87507 | 36840 ft | 397 kts | 198° |
| 2026-05-05 14:42 | 28.74506 | -16.87943 | 36215 ft | 395 kts | 198° |
| 2026-05-05 14:42 | 28.71791 | -16.88378 | 35588 ft | 393 kts | 198° |
| 2026-05-05 14:42 | 28.69082 | -16.88814 | 34926 ft | 393 kts | 198° |
| 2026-05-05 14:42 | 28.66370 | -16.89249 | 34260 ft | 393 kts | 198° |
| 2026-05-05 14:43 | 28.63658 | -16.89685 | 33498 ft | 394 kts | 198° |
| 2026-05-05 14:43 | 28.60944 | -16.90119 | 32730 ft | 394 kts | 198° |
| 2026-05-05 14:43 | 28.58225 | -16.90554 | 31987 ft | 394 kts | 197° |
| 2026-05-05 14:43 | 28.55508 | -16.90988 | 31217 ft | 395 kts | 197° |
| 2026-05-05 14:44 | 28.52780 | -16.91424 | 30440 ft | 396 kts | 197° |
| 2026-05-05 14:44 | 28.50044 | -16.91861 | 29544 ft | 398 kts | 197° |
| 2026-05-05 14:44 | 28.47291 | -16.92300 | 28601 ft | 400 kts | 196° |
| 2026-05-05 14:44 | 28.44535 | -16.92738 | 27609 ft | 400 kts | 196° |
| 2026-05-05 14:45 | 28.41780 | -16.93176 | 26703 ft | 400 kts | 196° |
| 2026-05-05 14:45 | 28.38990 | -16.93622 | 25814 ft | 411 kts | 195° |
| 2026-05-05 14:45 | 28.36112 | -16.94086 | 25095 ft | 422 kts | 195° |
| 2026-05-05 14:45 | 28.33216 | -16.94544 | 24350 ft | 417 kts | 195° |
| 2026-05-05 14:46 | 28.30364 | -16.94989 | 23607 ft | 411 kts | 195° |
| 2026-05-05 14:46 | 28.27557 | -16.95431 | 22785 ft | 405 kts | 195° |
| 2026-05-05 14:46 | 28.24790 | -16.95869 | 22041 ft | 398 kts | 195° |
| 2026-05-05 14:46 | 28.22066 | -16.96300 | 21323 ft | 392 kts | 195° |
| 2026-05-05 14:47 | 28.19345 | -16.96551 | 20621 ft | 396 kts | 186° |
| 2026-05-05 14:47 | 28.16585 | -16.96149 | 19926 ft | 404 kts | 175° |
| 2026-05-05 14:47 | 28.13880 | -16.95249 | 19268 ft | 409 kts | 166° |
| 2026-05-05 14:47 | 28.11293 | -16.93786 | 18604 ft | 422 kts | 158° |
| 2026-05-05 14:48 | 28.08691 | -16.92132 | 17794 ft | 432 kts | 157° |
| 2026-05-05 14:48 | 28.06091 | -16.90450 | 17041 ft | 428 kts | 156° |
| 2026-05-05 14:48 | 28.03523 | -16.88790 | 16317 ft | 422 kts | 156° |
| 2026-05-05 14:48 | 28.00989 | -16.87167 | 15607 ft | 415 kts | 156° |
| 2026-05-05 14:49 | 27.98485 | -16.85579 | 14925 ft | 410 kts | 156° |
| 2026-05-05 14:49 | 27.96009 | -16.84020 | 14249 ft | 405 kts | 156° |
| 2026-05-05 14:49 | 27.93557 | -16.82481 | 13423 ft | 403 kts | 156° |
| 2026-05-05 14:49 | 27.91108 | -16.80949 | 12595 ft | 401 kts | 155° |
| 2026-05-05 14:50 | 27.88683 | -16.79430 | 11882 ft | 395 kts | 156° |
| 2026-05-05 14:50 | 27.86293 | -16.77932 | 11277 ft | 389 kts | 155° |
| 2026-05-05 14:50 | 27.83985 | -16.76484 | 11130 ft | 371 kts | 155° |
| 2026-05-05 14:50 | 27.81778 | -16.75100 | 10970 ft | 355 kts | 155° |
| 2026-05-05 14:51 | 27.79661 | -16.73774 | 10822 ft | 341 kts | 155° |
| 2026-05-05 14:51 | 27.77673 | -16.72472 | 10685 ft | 331 kts | 149° |
| 2026-05-05 14:51 | 27.76131 | -16.70569 | 10542 ft | 330 kts | 123° |
| 2026-05-05 14:51 | 27.75391 | -16.68145 | 10406 ft | 327 kts | 100° |
| 2026-05-05 14:52 | 27.75444 | -16.65612 | 10264 ft | 322 kts | 79° |
| 2026-05-05 14:52 | 27.76168 | -16.63259 | 10139 ft | 313 kts | 67° |
| 2026-05-05 14:52 | 27.77032 | -16.61029 | 9922 ft | 309 kts | 66° |
| 2026-05-05 14:52 | 27.77896 | -16.58829 | 9729 ft | 303 kts | 66° |
| 2026-05-05 14:53 | 27.78724 | -16.56677 | 9596 ft | 295 kts | 67° |
| 2026-05-05 14:53 | 27.79520 | -16.54578 | 9460 ft | 287 kts | 68° |
| 2026-05-05 14:53 | 27.80292 | -16.52528 | 9311 ft | 281 kts | 68° |
| 2026-05-05 14:53 | 27.81052 | -16.50508 | 9092 ft | 278 kts | 67° |
| 2026-05-05 14:54 | 27.81804 | -16.48506 | 8838 ft | 276 kts | 67° |
| 2026-05-05 14:54 | 27.82551 | -16.46514 | 8584 ft | 275 kts | 68° |
| 2026-05-05 14:54 | 27.83294 | -16.44533 | 8323 ft | 273 kts | 68° |
| 2026-05-05 14:54 | 27.84035 | -16.42558 | 8068 ft | 272 kts | 67° |
| 2026-05-05 14:55 | 27.84772 | -16.40593 | 7817 ft | 271 kts | 67° |
| 2026-05-05 14:55 | 27.85506 | -16.38633 | 7550 ft | 270 kts | 68° |
| 2026-05-05 14:55 | 27.86238 | -16.36677 | 7286 ft | 270 kts | 67° |
| 2026-05-05 14:55 | 27.86966 | -16.34731 | 7032 ft | 268 kts | 67° |
| 2026-05-05 14:56 | 27.87692 | -16.32791 | 6774 ft | 268 kts | 67° |
| 2026-05-05 14:56 | 27.88416 | -16.30856 | 6518 ft | 267 kts | 66° |
| 2026-05-05 14:56 | 27.89405 | -16.29109 | 6211 ft | 265 kts | 40° |
| 2026-05-05 14:56 | 27.91007 | -16.28167 | 5970 ft | 259 kts | 10° |
| 2026-05-05 14:57 | 27.92770 | -16.28149 | 5750 ft | 252 kts | 347° |
| 2026-05-05 14:57 | 27.94415 | -16.28775 | 5529 ft | 248 kts | 336° |
| 2026-05-05 14:57 | 27.95992 | -16.29545 | 5271 ft | 246 kts | 335° |
| 2026-05-05 14:57 | 27.97557 | -16.30315 | 5047 ft | 244 kts | 336° |
| 2026-05-05 14:58 | 27.99109 | -16.31066 | 4822 ft | 241 kts | 338° |
| 2026-05-05 14:58 | 28.00646 | -16.31804 | 4596 ft | 239 kts | 338° |
| 2026-05-05 14:58 | 28.02172 | -16.32535 | 4383 ft | 237 kts | 338° |
| 2026-05-05 14:58 | 28.03683 | -16.33255 | 4187 ft | 234 kts | 338° |
| 2026-05-05 14:59 | 28.05159 | -16.33957 | 4000 ft | 226 kts | 339° |
| 2026-05-05 14:59 | 28.06576 | -16.34630 | 3774 ft | 217 kts | 339° |
| 2026-05-05 14:59 | 28.07934 | -16.35273 | 3601 ft | 204 kts | 338° |
| 2026-05-05 14:59 | 28.09191 | -16.35872 | 3536 ft | 187 kts | 338° |
| 2026-05-05 15:00 | 28.10216 | -16.36638 | 3506 ft | 170 kts | 310° |
| 2026-05-05 15:00 | 28.10612 | -16.37401 | 3454 ft | 172 kts | 290° |
| 2026-05-05 15:00 | 28.10457 | -16.39180 | 3238 ft | 175 kts | 257° |
| 2026-05-05 15:00 | 28.10154 | -16.40515 | 3008 ft | 174 kts | 256° |
| 2026-05-05 15:01 | 28.09781 | -16.41816 | 2785 ft | 173 kts | 253° |
| 2026-05-05 15:01 | 28.09364 | -16.43071 | 2556 ft | 171 kts | 252° |
| 2026-05-05 15:01 | 28.08934 | -16.44322 | 2332 ft | 170 kts | 251° |
| 2026-05-05 15:01 | 28.08496 | -16.45580 | 2112 ft | 172 kts | 252° |
| 2026-05-05 15:02 | 28.08062 | -16.46826 | 1862 ft | 166 kts | 253° |
| 2026-05-05 15:02 | 28.07650 | -16.48019 | 1688 ft | 165 kts | 253° |
| 2026-05-05 15:02 | 28.07231 | -16.49227 | 1448 ft | 163 kts | 251° |
| 2026-05-05 15:02 | 28.06820 | -16.50409 | 1222 ft | 158 kts | 251° |
| 2026-05-05 15:03 | 28.06426 | -16.51553 | 1024 ft | 157 kts | 250° |
| 2026-05-05 15:03 | 28.06034 | -16.52727 | 800 ft | 161 kts | 245° |
| 2026-05-05 15:03 | 28.05604 | -16.53909 | 639 ft | 162 kts | 248° |
| 2026-05-05 15:03 | 28.05342 | -16.54700 | 456 ft | 163 kts | 245° |
| 2026-05-05 15:04 | 28.04941 | -16.55852 | 245 ft | 152 kts | 243° |
| 2026-05-05 15:04 | 28.04572 | -16.56887 | 210 ft | 124 kts | 248° |
| 2026-05-05 15:04 | 28.04341 | -16.57553 | 198 ft | 31 kts | 249° |
| 2026-05-05 15:04 | 28.04305 | -16.57767 | 196 ft | 29 kts | 266° |
| 2026-05-05 15:05 | 28.04287 | -16.58123 | 196 ft | 13 kts | 281° |
| 2026-05-05 15:05 | 28.04347 | -16.58189 | 200 ft | 12 kts | 337° |
| 2026-05-05 15:05 | 28.04416 | -16.58218 | 202 ft | 8 kts | 341° |
| 2026-05-05 15:06 | 28.04452 | -16.58181 | 205 ft | 8 kts | 71° |
| 2026-05-05 15:06 | 28.04471 | -16.58123 | 202 ft | 8 kts | 70° |
| 2026-05-05 15:06 | 28.04491 | -16.58067 | 197 ft | 8 kts | 68° |
| 2026-05-05 15:06 | 28.04521 | -16.57982 | 198 ft | 15 kts | 69° |
| 2026-05-05 15:07 | 28.04564 | -16.57855 | 198 ft | 19 kts | 68° |
| 2026-05-05 15:07 | 28.04610 | -16.57721 | 209 ft | 13 kts | 69° |
| 2026-05-05 15:07 | 28.04630 | -16.57666 | 203 ft | 6 kts | 57° |
| 2026-05-05 15:07 | 28.04667 | -16.57659 | 200 ft | 6 kts | 354° |
| 2026-05-05 15:08 | 28.04703 | -16.57673 | 206 ft | 6 kts | 338° |
| 2026-05-05 15:08 | 28.04717 | -16.57680 | 206 ft | 0 kts | 338° |